Time;durP1;ratioP1;P1;durP2;ratioP2;P2;SDS_P1;SDS_P2;PMS_P1;PMS_P2;Temp;Humidity;BMP_temperature;BMP_pressure;BME280_temperature;BME280_humidity;BME280_pressure;Samples;Min_cycle;Max_cycle;Signal;HPM_P1;HPM_P2
2022/08/25 00:01:19;;;;;;;9.95;5.53;;;;;;;17.91;59.34;101068.09;4774430;30;20093;-76
2022/08/25 00:03:46;;;;;;;10.63;5.95;;;;;;;17.89;59.38;101075.16;4772599;29;20051;-76
2022/08/25 00:06:13;;;;;;;8.63;5.80;;;;;;;17.85;59.37;101064.72;4788249;29;20051;-78
2022/08/25 00:08:40;;;;;;;16.80;5.68;;;;;;;17.79;59.44;101059.56;4769222;29;20063;-77
2022/08/25 00:11:11;;;;;;;10.57;5.35;;;;;;;17.80;59.49;101064.81;4770151;29;20059;-76
2022/08/25 00:13:43;;;;;;;12.38;6.85;;;;;;;17.84;59.77;101068.25;4762112;29;20043;-78
2022/08/25 00:16:12;;;;;;;13.85;6.13;;;;;;;17.83;59.78;101061.25;4767258;29;20433;-77
2022/08/25 00:18:40;;;;;;;9.88;5.50;;;;;;;17.84;59.63;101066.50;4762635;29;20184;-77
2022/08/25 00:21:07;;;;;;;10.80;5.97;;;;;;;17.76;59.79;101064.00;4768239;30;20108;-77
2022/08/25 00:23:33;;;;;;;6.72;4.90;;;;;;;17.82;59.90;101067.41;4747418;30;20043;-77
2022/08/25 00:26:01;;;;;;;8.02;5.00;;;;;;;17.83;59.75;101063.88;4781827;29;20054;-78
2022/08/25 00:28:29;;;;;;;10.82;5.28;;;;;;;17.83;59.73;101062.13;4761002;29;20104;-76
2022/08/25 00:30:55;;;;;;;6.82;4.93;;;;;;;17.90;59.27;101060.25;4760729;30;20059;-78
2022/08/25 00:33:21;;;;;;;6.60;5.10;;;;;;;17.91;59.03;101059.34;4766968;29;20456;-76
2022/08/25 00:35:47;;;;;;;12.30;5.95;;;;;;;17.92;58.73;101058.47;4748847;30;20355;-77
2022/08/25 00:38:13;;;;;;;10.40;5.78;;;;;;;17.90;58.57;101058.47;4767950;30;20508;-78
2022/08/25 00:40:39;;;;;;;15.73;6.22;;;;;;;17.84;58.92;101063.88;4781551;29;20047;-78
2022/08/25 00:43:08;;;;;;;8.60;5.53;;;;;;;17.75;58.99;101051.75;4774578;29;20484;-76
2022/08/25 00:45:34;;;;;;;13.27;6.18;;;;;;;17.72;59.27;101059.69;4769597;30;20043;-77
2022/08/25 00:48:01;;;;;;;13.23;6.13;;;;;;;17.71;58.92;101060.59;4764072;30;20504;-77
2022/08/25 00:50:33;;;;;;;13.35;6.53;;;;;;;17.71;58.99;101063.22;4761456;30;20079;-76
2022/08/25 00:53:02;;;;;;;14.88;6.43;;;;;;;17.71;59.45;101063.22;4779689;29;20545;-80
2022/08/25 00:55:39;;;;;;;13.77;6.72;;;;;;;17.67;59.41;101061.53;4762164;30;20043;-76
2022/08/25 00:58:17;;;;;;;10.18;6.30;;;;;;;17.60;59.44;101052.00;4767680;30;20100;-76
2022/08/25 01:00:49;;;;;;;10.80;6.57;;;;;;;17.63;59.65;101059.00;4765445;29;20044;-76
2022/08/25 01:03:17;;;;;;;6.82;5.07;;;;;;;17.56;59.63;101056.47;4771135;29;20051;-76
2022/08/25 01:05:45;;;;;;;10.15;5.82;;;;;;;17.50;59.65;101067.09;4766982;29;20583;-77
2022/08/25 01:08:12;;;;;;;10.77;6.13;;;;;;;17.50;59.71;101067.09;4772609;29;20043;-77
2022/08/25 01:10:42;;;;;;;10.15;5.40;;;;;;;17.43;60.07;101053.19;4771160;30;20049;-76
2022/08/25 01:13:14;;;;;;;9.07;6.15;;;;;;;17.45;60.25;101061.94;4758813;30;20443;-77
2022/08/25 01:15:40;;;;;;;8.38;5.25;;;;;;;17.45;60.47;101064.56;4755456;30;20091;-77
2022/08/25 01:18:07;;;;;;;9.88;5.88;;;;;;;17.40;60.18;101062.91;4775281;29;20058;-77
2022/08/25 01:20:33;;;;;;;13.57;6.38;;;;;;;17.38;60.42;101060.28;4768546;30;20512;-79
2022/08/25 01:23:00;;;;;;;11.75;6.07;;;;;;;17.35;60.75;101065.59;4767010;30;20048;-76
2022/08/25 01:25:51;;;;;;;14.50;5.80;;;;;;;17.32;60.95;101065.69;4745934;30;20108;-77
2022/08/25 01:28:19;;;;;;;16.23;5.83;;;;;;;17.21;61.03;101049.19;4770029;29;20102;-78
2022/08/25 01:30:46;;;;;;;9.77;5.72;;;;;;;17.23;61.13;101055.31;4763140;30;20123;-78
2022/08/25 01:33:12;;;;;;;9.05;5.40;;;;;;;17.14;61.39;101051.91;4753915;30;20097;-77
2022/08/25 01:35:39;;;;;;;19.13;6.05;;;;;;;17.19;61.57;101064.13;4770581;30;20132;-76
2022/08/25 01:38:06;;;;;;;13.68;6.47;;;;;;;17.15;61.70;101055.44;4771539;29;20050;-77
2022/08/25 01:40:34;;;;;;;11.75;6.43;;;;;;;17.16;61.95;101057.16;4760502;30;20082;-77
2022/08/25 01:43:16;;;;;;;10.35;5.90;;;;;;;17.13;61.90;101050.19;4769258;29;20136;-76
2022/08/25 01:45:43;;;;;;;;;;;;;;;17.12;61.81;101055.47;4763442;30;20048;-76
2022/08/25 01:48:10;;;;;;;11.27;5.97;;;;;;;17.10;61.85;101049.38;4770065;30;20018;-77
2022/08/25 01:50:37;;;;;;;10.35;6.00;;;;;;;17.07;61.90;101057.31;4762397;29;20389;-75
2022/08/25 01:53:07;;;;;;;10.65;5.40;;;;;;;17.07;61.83;101060.81;4768765;29;20104;-78
2022/08/25 01:55:50;;;;;;;16.90;5.93;;;;;;;17.00;61.95;101048.66;4769025;29;20051;-77
2022/08/25 01:58:29;;;;;;;16.17;6.70;;;;;;;17.06;61.99;101063.44;4770329;30;20315;-76
2022/08/25 02:00:58;;;;;;;13.48;6.25;;;;;;;17.09;61.99;101059.03;4780933;29;20047;-78
2022/08/25 02:03:25;;;;;;;14.45;6.30;;;;;;;17.10;61.52;101060.75;4776441;29;20052;-76
2022/08/25 02:05:52;;;;;;;13.57;6.85;;;;;;;17.02;61.50;101068.75;4770287;29;20063;-78
2022/08/25 02:08:18;;;;;;;14.93;7.90;;;;;;;17.04;61.89;101063.50;4770326;30;20111;-76
2022/08/25 02:10:45;;;;;;;16.55;6.15;;;;;;;16.97;61.51;101064.47;4770454;30;20051;-77
2022/08/25 02:13:12;;;;;;;16.20;6.15;;;;;;;17.01;61.82;101072.28;4768930;30;20079;-76
2022/08/25 02:15:43;;;;;;;16.77;7.53;;;;;;;17.05;62.21;101073.13;4765495;29;20408;-76
2022/08/25 02:18:10;;;;;;;13.73;6.90;;;;;;;16.98;61.85;101059.19;4770665;29;20079;-77
2022/08/25 02:20:37;;;;;;;17.27;6.57;;;;;;;17.08;61.78;101073.06;4771875;30;20048;-78
2022/08/25 02:23:03;;;;;;;24.95;7.60;;;;;;;17.06;61.64;101072.22;4774352;29;20127;-78
2022/08/25 02:25:30;;;;;;;16.60;7.20;;;;;;;17.09;61.64;101073.94;4750729;30;20035;-78
2022/08/25 02:27:57;;;;;;;17.88;6.93;;;;;;;17.04;61.70;101070.50;4771609;30;20142;-77
2022/08/25 02:30:23;;;;;;;15.80;7.03;;;;;;;17.03;61.90;101072.28;4770047;29;20127;-77
2022/08/25 02:32:49;;;;;;;18.90;8.07;;;;;;;17.03;61.85;101072.28;4770477;29;20513;-79
2022/08/25 02:35:16;;;;;;;31.25;7.88;;;;;;;17.05;61.98;101074.88;4770867;29;20138;-75
2022/08/25 02:37:42;;;;;;;20.02;8.27;;;;;;;17.05;62.08;101066.97;4770263;30;20056;-77
2022/08/25 02:40:10;;;;;;;15.88;7.47;;;;;;;17.03;62.07;101069.63;4770756;29;20044;-76
2022/08/25 02:42:36;;;;;;;16.98;7.70;;;;;;;17.05;62.26;101067.84;4763740;29;20043;-78
2022/08/25 02:45:03;;;;;;;14.65;6.80;;;;;;;17.07;62.21;101073.97;4769609;29;20590;-76
2022/08/25 02:47:30;;;;;;;13.77;7.20;;;;;;;17.05;62.30;101059.97;4767233;29;20051;-77
2022/08/25 02:49:56;;;;;;;16.45;7.93;;;;;;;17.10;62.33;101066.00;4770046;30;20047;-77
2022/08/25 02:52:24;;;;;;;19.67;7.80;;;;;;;17.12;62.27;101071.25;4760987;29;20051;-77
2022/08/25 02:54:50;;;;;;;18.60;7.32;;;;;;;17.14;62.17;101062.44;4754058;30;20039;-75
2022/08/25 02:57:16;;;;;;;18.27;7.15;;;;;;;17.19;62.37;101061.50;4753199;29;20082;-77
2022/08/25 02:59:46;;;;;;;15.32;7.60;;;;;;;17.14;62.21;101041.41;4764751;30;20120;-76
2022/08/25 03:02:12;;;;;;;26.35;8.05;;;;;;;17.29;62.20;101066.59;4770880;30;20071;-76
2022/08/25 03:04:38;;;;;;;29.52;7.72;;;;;;;17.34;61.91;101055.13;4770584;30;20382;-78
2022/08/25 03:07:04;;;;;;;14.95;7.13;;;;;;;17.41;62.05;101056.75;4751297;30;20051;-77
2022/08/25 03:09:31;;;;;;;20.60;7.53;;;;;;;17.48;61.92;101061.00;4763925;30;20040;-76
2022/08/25 03:11:57;;;;;;;15.20;7.70;;;;;;;17.54;61.90;101060.91;4755080;30;20101;-78
2022/08/25 03:14:23;;;;;;;15.60;6.82;;;;;;;17.50;61.85;101038.16;4770270;29;20055;-77
2022/08/25 03:16:49;;;;;;;16.65;7.78;;;;;;;17.65;61.78;101052.81;4763341;30;20474;-76
2022/08/25 03:19:15;;;;;;;18.95;7.32;;;;;;;17.75;61.59;101054.38;4770707;29;20571;-77
2022/08/25 03:21:41;;;;;;;14.88;6.93;;;;;;;17.79;61.54;101051.66;4763752;29;20055;-77
2022/08/25 03:24:07;;;;;;;13.35;6.82;;;;;;;17.91;61.60;101057.56;4750431;29;20187;-76
2022/08/25 03:29:19;;;;;;;15.27;7.30;;;;;;;18.12;61.26;101049.31;4781239;30;20079;-76
2022/08/25 03:31:46;;;;;;;16.77;7.07;;;;;;;18.21;60.66;101051.75;4766321;29;20499;-76
2022/08/25 03:34:15;;;;;;;20.30;7.07;;;;;;;18.29;60.69;101052.47;4753542;29;20050;-78
2022/08/25 03:36:44;;;;;;;19.23;8.20;;;;;;;18.39;60.44;101045.22;4748203;29;20425;-77
2022/08/25 03:39:10;;;;;;;11.65;7.05;;;;;;;18.50;60.44;101045.88;4783774;29;20105;-77
2022/08/25 03:41:37;;;;;;;15.43;7.40;;;;;;;18.63;60.24;101043.84;4748872;30;20063;-79
2022/08/25 03:44:08;;;;;;;13.95;7.25;;;;;;;18.78;59.96;101045.22;4770200;29;20047;-77
2022/08/25 03:46:47;;;;;;;14.45;7.32;;;;;;;18.91;59.56;101037.88;4761858;29;20104;-77
2022/08/25 03:49:17;;;;;;;17.02;7.15;;;;;;;19.01;59.38;101035.94;4769218;29;20508;-77
2022/08/25 03:51:49;;;;;;;11.27;7.05;;;;;;;19.20;58.75;101043.41;4764506;30;20090;-76
2022/08/25 03:54:22;;;;;;;17.15;7.40;;;;;;;19.38;58.48;101036.78;4773284;30;20070;-76
2022/08/25 03:56:48;;;;;;;14.00;7.13;;;;;;;19.60;57.73;101033.56;4772591;29;20051;-76
2022/08/25 03:59:15;;;;;;;13.35;7.78;;;;;;;19.73;57.03;101019.16;4770019;29;20059;-76
2022/08/25 04:01:43;;;;;;;15.65;6.95;;;;;;;20.02;56.56;101028.03;4783403;29;20085;-78
2022/08/25 04:04:11;;;;;;;12.80;7.10;;;;;;;20.21;56.52;101031.00;4776830;29;20067;-75
2022/08/25 04:06:38;;;;;;;12.23;7.22;;;;;;;20.42;55.97;101031.28;4759135;30;20051;-76
2022/08/25 04:09:05;;;;;;;14.23;7.22;;;;;;;20.54;55.66;101019.44;4779038;29;20052;-78
2022/08/25 04:11:34;;;;;;;12.30;6.85;;;;;;;20.60;55.26;101004.25;4777030;30;20092;-78
2022/08/25 04:14:01;;;;;;;14.02;6.53;;;;;;;20.98;55.05;101033.06;4782609;29;20059;-77
2022/08/25 04:16:30;;;;;;;9.43;6.60;;;;;;;21.20;54.44;101024.41;4778270;29;20050;-78
2022/08/25 04:18:59;;;;;;;11.93;7.22;;;;;;;21.31;54.25;100998.41;4779176;29;20044;-76
2022/08/25 04:21:26;;;;;;;11.80;6.50;;;;;;;21.57;53.67;101009.03;4764328;29;20067;-75
2022/08/25 04:23:53;;;;;;;19.08;6.63;;;;;;;21.72;53.03;101008.50;4792192;30;20047;-75
2022/08/25 04:26:29;;;;;;;9.60;6.13;;;;;;;21.96;52.46;100998.78;4790561;29;20055;-78
2022/08/25 04:28:58;;;;;;;9.38;6.03;;;;;;;22.25;52.09;100996.81;4793777;30;20028;-76
2022/08/25 04:31:29;;;;;;;9.40;6.25;;;;;;;22.50;51.63;100993.22;4770627;30;20032;-79
2022/08/25 04:33:56;;;;;;;9.80;5.88;;;;;;;22.80;50.85;101005.28;4779885;30;20043;-79
2022/08/25 04:36:26;;;;;;;11.13;6.75;;;;;;;22.97;50.69;100988.69;4764559;30;20056;-79
2022/08/25 04:38:53;;;;;;;11.68;6.90;;;;;;;23.25;50.05;100995.50;4771463;30;20157;-79
2022/08/25 04:41:23;;;;;;;11.75;6.25;;;;;;;23.46;49.48;100999.88;4785066;29;20078;-78
2022/08/25 04:43:50;;;;;;;8.40;6.43;;;;;;;23.68;48.98;100990.06;4772631;30;20051;-78
2022/08/25 04:46:20;;;;;;;9.80;6.20;;;;;;;23.87;48.57;100990.13;4743541;30;20134;-75
2022/08/25 04:48:51;;;;;;;9.73;6.47;;;;;;;23.95;48.18;100966.69;4752310;30;20151;-76
2022/08/25 04:51:22;;;;;;;11.80;6.05;;;;;;;24.32;47.53;100988.91;4768655;30;20451;-78
2022/08/25 04:53:49;;;;;;;14.30;6.30;;;;;;;24.49;47.00;100980.13;4763524;30;20058;-78
2022/08/25 04:56:18;;;;;;;10.88;6.95;;;;;;;24.77;46.89;100988.59;4759607;29;20311;-76
2022/08/25 04:58:47;;;;;;;11.73;6.68;;;;;;;25.01;46.05;100989.13;4749209;30;20139;-76
2022/08/25 05:01:16;;;;;;;10.88;5.93;;;;;;;25.23;46.11;100974.72;4771310;30;20047;-76
2022/08/25 05:03:43;;;;;;;11.55;6.22;;;;;;;25.51;45.34;100981.28;4772702;30;20102;-75
2022/08/25 05:06:11;;;;;;;8.30;6.90;;;;;;;25.74;45.40;100974.72;4780821;30;20131;-80
2022/08/25 05:08:38;;;;;;;14.02;6.93;;;;;;;25.87;44.75;100964.25;4776938;29;20052;-77
2022/08/25 05:11:09;;;;;;;10.35;6.70;;;;;;;26.17;44.59;100971.53;4770445;30;20044;-79
2022/08/25 05:13:35;;;;;;;;;;;;;;;26.51;43.98;100974.09;4775739;30;20054;-77
2022/08/25 05:16:04;;;;;;;11.45;6.70;;;;;;;27.00;43.61;100976.59;4774141;29;19937;-76
2022/08/25 05:18:32;;;;;;;12.45;7.00;;;;;;;27.89;43.42;100963.19;4773728;30;20043;-78
2022/08/25 05:21:04;;;;;;;11.90;6.72;;;;;;;29.55;40.96;100971.88;4770179;29;20055;-77
2022/08/25 05:23:31;;;;;;;14.48;6.68;;;;;;;31.39;38.32;100954.72;4749504;29;20126;-76
2022/08/25 05:26:19;;;;;;;10.32;5.88;;;;;;;33.24;35.16;100947.69;4757637;30;20058;-79
2022/08/25 05:28:46;;;;;;;11.88;6.00;;;;;;;34.72;33.60;100954.31;4767626;29;20075;-80
2022/08/25 05:31:14;;;;;;;9.35;5.78;;;;;;;36.00;31.65;100943.06;4770275;30;20138;-79
2022/08/25 05:33:41;;;;;;;7.57;6.20;;;;;;;37.18;29.24;100951.06;4763687;29;20067;-78
2022/08/25 05:36:09;;;;;;;7.93;6.00;;;;;;;38.28;28.24;100946.72;4773994;29;20113;-77
2022/08/25 05:38:36;;;;;;;10.18;5.78;;;;;;;39.22;26.71;100943.59;4778593;30;20054;-77
2022/08/25 05:41:09;;;;;;;12.68;6.45;;;;;;;40.17;24.62;100941.78;4782759;30;20106;-76
2022/08/25 05:43:40;;;;;;;8.90;6.07;;;;;;;41.05;23.35;100946.81;4790387;29;20047;-77
2022/08/25 05:46:07;;;;;;;11.57;6.07;;;;;;;41.58;22.23;100951.38;4775241;30;20088;-79
2022/08/25 05:48:34;;;;;;;8.68;6.45;;;;;;;42.32;21.66;100943.13;4763730;30;20420;-77
2022/08/25 05:51:05;;;;;;;9.10;5.50;;;;;;;43.00;20.79;100948.97;4744277;30;20421;-79
2022/08/25 05:53:32;;;;;;;9.13;5.78;;;;;;;43.94;19.63;100943.06;4762573;29;20048;-78
2022/08/25 05:55:59;;;;;;;10.80;6.15;;;;;;;44.53;18.83;100940.63;4766657;30;20054;-78
2022/08/25 05:58:27;;;;;;;9.55;6.05;;;;;;;45.15;17.92;100943.03;4771982;30;20140;-78
2022/08/25 06:00:54;;;;;;;6.43;5.57;;;;;;;45.84;17.17;100943.41;4787906;29;20107;-77
2022/08/25 06:03:20;;;;;;;7.13;5.60;;;;;;;46.44;16.69;100935.81;4781394;29;20388;-77
2022/08/25 06:05:47;;;;;;;6.85;5.70;;;;;;;47.02;15.86;100940.13;4749554;30;20097;-78
2022/08/25 06:08:14;;;;;;;7.85;5.70;;;;;;;47.47;15.26;100936.19;4767903;29;20048;-79
2022/08/25 06:10:43;;;;;;;8.45;6.18;;;;;;;48.07;14.76;100940.06;4787475;29;20149;-76
2022/08/25 06:13:09;;;;;;;7.65;5.78;;;;;;;48.28;14.44;100940.56;4781284;29;20078;-78
2022/08/25 06:15:35;;;;;;;11.25;6.20;;;;;;;48.59;13.62;100938.53;4756976;30;20044;-77
2022/08/25 06:18:02;;;;;;;7.15;6.03;;;;;;;48.91;13.30;100938.19;4783058;30;20130;-76
2022/08/25 06:20:30;;;;;;;7.70;5.90;;;;;;;49.18;13.00;100939.56;4769344;29;20104;-79
2022/08/25 06:22:57;;;;;;;10.52;6.30;;;;;;;49.73;12.29;100947.31;4753940;29;20052;-78
2022/08/25 06:25:27;;;;;;;9.75;6.18;;;;;;;50.04;11.68;100947.84;4770298;29;20043;-78
2022/08/25 06:27:54;;;;;;;7.25;6.43;;;;;;;50.45;11.79;100944.09;4753508;30;20056;-78
2022/08/25 06:30:22;;;;;;;7.35;5.88;;;;;;;51.02;10.94;100934.69;4785365;29;20050;-78
2022/08/25 06:32:51;;;;;;;10.02;6.55;;;;;;;51.57;10.65;100937.56;4761865;30;20492;-80
2022/08/25 06:35:28;;;;;;;;;;;;;;;;;;;;;
2022/08/25 06:38:14;;;;;;;;;;;;;;;;;;;;;
2022/08/25 06:41:36;;;;;;;11.00;6.80;;;;;;;52.31;9.80;100924.06;4742185;30;20055;-78
2022/08/25 06:44:03;;;;;;;7.53;6.70;;;;;;;51.89;9.83;100930.38;4738502;30;20055;-79
2022/08/25 06:46:33;;;;;;;7.63;6.13;;;;;;;52.52;9.43;100927.81;4758109;30;20052;-78
2022/08/25 06:49:00;;;;;;;6.55;5.95;;;;;;;52.80;9.06;100909.09;4748816;30;20051;-78
2022/08/25 06:51:28;;;;;;;9.15;5.97;;;;;;;53.30;8.59;100920.66;4763922;29;20049;-78
2022/08/25 06:53:58;;;;;;;9.18;6.43;;;;;;;53.65;8.76;100923.00;4775331;29;20048;-79
2022/08/25 06:56:24;;;;;;;8.40;6.45;;;;;;;54.30;7.92;100922.44;4770936;30;20069;-78
2022/08/25 06:58:50;;;;;;;9.68;6.10;;;;;;;54.49;8.19;100920.69;4774303;29;20063;-77
2022/08/25 07:01:24;;;;;;;9.73;6.32;;;;;;;55.04;7.53;100917.19;4793291;29;20067;-82
2022/08/25 07:04:02;;;;;;;11.93;6.43;;;;;;;55.38;7.19;100915.59;4782302;29;20048;-86
2022/08/25 07:06:36;;;;;;;8.20;6.68;;;;;;;55.09;7.73;100905.16;4745309;30;20047;-74
2022/08/25 07:09:05;;;;;;;9.63;6.30;;;;;;;55.62;7.45;100917.69;4777944;29;20547;-78
2022/08/25 07:11:34;;;;;;;16.35;7.05;;;;;;;56.13;7.12;100914.41;4789625;29;20112;-79
2022/08/25 07:14:06;;;;;;;13.05;6.65;;;;;;;56.43;6.34;100918.03;4773220;29;20451;-78
2022/08/25 07:16:36;;;;;;;19.38;6.95;;;;;;;56.54;6.43;100915.97;4765436;30;20040;-81
2022/08/25 07:19:03;;;;;;;12.85;6.10;;;;;;;56.68;6.71;100920.81;4777777;29;20409;-80
2022/08/25 07:21:34;;;;;;;9.20;6.38;;;;;;;56.60;5.86;100918.72;4796607;29;20049;-78
2022/08/25 07:24:03;;;;;;;12.63;6.65;;;;;;;57.16;6.25;100903.16;4773855;30;20054;-82
2022/08/25 07:26:35;;;;;;;11.75;7.22;;;;;;;57.21;5.63;100910.66;4761184;30;20044;-77
2022/08/25 07:29:11;;;;;;;10.43;6.38;;;;;;;56.86;5.58;100911.66;4751029;29;20077;-80
2022/08/25 07:31:41;;;;;;;9.95;6.65;;;;;;;56.96;5.35;100905.09;4778090;29;20043;-81
2022/08/25 07:36:57;;;;;;;11.15;6.20;;;;;;;58.04;5.58;100908.16;4765490;30;20195;-80
2022/08/25 07:39:26;;;;;;;7.57;6.80;;;;;;;57.07;4.88;100896.56;4769388;30;20062;-78
2022/08/25 07:41:55;;;;;;;8.75;6.50;;;;;;;56.99;5.99;100898.91;4755136;30;20135;-79
2022/08/25 07:44:23;;;;;;;8.13;6.20;;;;;;;57.11;5.57;100901.25;4781984;29;20296;-77
2022/08/25 07:46:50;;;;;;;7.90;6.13;;;;;;;57.69;4.98;100901.22;4768871;30;20104;-78
2022/08/25 07:49:21;;;;;;;7.68;6.57;;;;;;;58.39;4.83;100896.56;4771420;30;20047;-79
2022/08/25 07:51:47;;;;;;;8.10;6.57;;;;;;;58.67;5.08;100895.72;4749785;30;20142;-79
2022/08/25 07:54:16;;;;;;;9.57;6.35;;;;;;;58.81;4.66;100890.97;4768010;29;20623;-80
2022/08/25 07:56:45;;;;;;;8.30;6.57;;;;;;;58.31;4.85;100881.34;4762062;29;20100;-78
2022/08/25 07:59:13;;;;;;;7.10;6.50;;;;;;;58.80;4.77;100886.50;4767717;29;20150;-80
2022/08/25 08:01:42;;;;;;;9.45;7.10;;;;;;;58.80;4.83;100873.31;4778670;29;20055;-80
2022/08/25 08:04:10;;;;;;;8.05;6.60;;;;;;;58.02;4.50;100888.03;4783085;29;20047;-81
2022/08/25 08:06:38;;;;;;;7.20;6.38;;;;;;;58.19;4.71;100883.81;4768875;29;20058;-82
2022/08/25 08:09:04;;;;;;;7.25;6.53;;;;;;;58.67;4.75;100860.16;4781005;29;20039;-80
2022/08/25 08:11:33;;;;;;;6.95;6.18;;;;;;;58.31;4.39;100864.53;4759718;30;20055;-79
2022/08/25 08:14:07;;;;;;;8.10;6.60;;;;;;;57.17;4.97;100830.22;4770863;29;20476;-80
2022/08/25 08:17:27;;;;;;;10.82;6.30;;;;;;;56.80;5.20;100833.78;4748582;30;20047;-80
2022/08/25 08:24:46;;;;;;;9.85;6.47;;;;;;;57.44;5.12;100858.53;4753045;30;20112;-77
2022/08/25 08:27:15;;;;;;;6.90;6.28;;;;;;;58.43;4.97;100838.00;4762195;30;20064;-79
2022/08/25 08:29:44;;;;;;;7.60;6.70;;;;;;;58.96;3.96;100853.34;4765680;29;20377;-77
2022/08/25 08:32:14;;;;;;;6.57;6.07;;;;;;;59.26;4.04;100850.13;4772569;29;20058;-80
2022/08/25 08:34:40;;;;;;;7.57;6.90;;;;;;;59.44;3.85;100848.28;4769634;29;20039;-79
2022/08/25 08:37:07;;;;;;;8.32;6.80;;;;;;;59.47;3.97;100850.44;4782464;29;20062;-80
2022/08/25 08:39:36;;;;;;;9.73;7.07;;;;;;;59.81;4.22;100849.00;4763468;29;20505;-78
2022/08/25 08:42:36;;;;;;;7.40;6.70;;;;;;;59.64;3.27;100847.75;4767949;30;20052;-78
2022/08/25 08:45:28;;;;;;;7.93;6.10;;;;;;;58.11;3.54;100845.38;4765005;30;20054;-76
2022/08/25 08:48:09;;;;;;;6.88;6.28;;;;;;;58.48;3.75;100835.94;4763776;30;20536;-77
2022/08/25 08:50:56;;;;;;;11.50;6.97;;;;;;;58.78;3.72;100836.38;4769677;30;20423;-78
2022/08/25 08:54:01;;;;;;;7.13;6.60;;;;;;;58.06;4.40;100835.91;4782135;29;20059;-80
2022/08/25 08:56:30;;;;;;;7.88;7.05;;;;;;;58.12;4.37;100827.44;4767918;30;20039;-78
2022/08/25 08:59:04;;;;;;;7.20;6.70;;;;;;;57.94;4.00;100832.78;4751514;29;20066;-78
2022/08/25 09:01:36;;;;;;;8.52;6.70;;;;;;;56.70;4.13;100815.22;4774741;29;20051;-78
2022/08/25 09:04:12;;;;;;;6.90;5.90;;;;;;;55.26;4.77;100814.78;4767377;29;20075;-80
2022/08/25 09:06:43;;;;;;;6.55;5.90;;;;;;;55.06;5.68;100816.59;4771553;29;20073;-80
2022/08/25 09:09:13;;;;;;;6.80;6.20;;;;;;;54.75;5.29;100814.81;4754284;30;20043;-80
2022/08/25 09:12:17;;;;;;;11.02;6.45;;;;;;;55.29;5.36;100812.25;4774360;29;20607;-78
2022/08/25 09:14:46;;;;;;;9.77;6.80;;;;;;;55.39;5.41;100803.00;4763656;29;20157;-80
2022/08/25 09:17:34;;;;;;;8.35;6.05;;;;;;;54.16;5.25;100806.13;4755161;30;20048;-78
2022/08/25 09:20:37;;;;;;;8.43;6.50;;;;;;;50.47;6.94;100798.88;4770839;29;20040;-77
2022/08/25 09:23:38;;;;;;;6.97;5.68;;;;;;;48.10;7.73;100800.84;4767355;29;20074;-79
2022/08/25 09:26:20;;;;;;;6.30;5.70;;;;;;;47.61;8.47;100793.59;4755398;30;20043;-78
2022/08/25 09:28:54;;;;;;;8.32;5.78;;;;;;;48.01;8.21;100774.72;4774136;29;20513;-81
2022/08/25 09:31:32;;;;;;;7.75;6.38;;;;;;;47.41;8.13;100773.78;4776756;29;20096;-80
2022/08/25 09:34:02;;;;;;;6.00;5.40;;;;;;;46.32;8.89;100787.19;4765801;30;20111;-77
2022/08/25 09:36:29;;;;;;;6.20;5.60;;;;;;;45.49;9.62;100786.38;4770069;30;20083;-78
2022/08/25 09:39:00;;;;;;;6.45;5.05;;;;;;;46.66;8.55;100776.69;4778713;29;20145;-78
2022/08/25 09:41:45;;;;;;;5.75;5.25;;;;;;;48.94;7.79;100779.47;4752491;30;20139;-78
2022/08/25 09:44:23;;;;;;;9.65;5.10;;;;;;;50.21;7.12;100778.31;4752735;30;20049;-79
2022/08/25 09:47:09;;;;;;;7.63;5.20;;;;;;;49.13;7.29;100775.44;4773126;29;20055;-78
2022/08/25 09:49:39;;;;;;;7.50;6.70;;;;;;;47.69;8.04;100775.06;4753763;30;20051;-77
2022/08/25 09:52:32;;;;;;;10.60;8.10;;;;;;;46.02;8.37;100771.38;4779650;29;20043;-79
2022/08/25 09:55:01;;;;;;;8.88;7.82;;;;;;;44.78;9.22;100769.84;4769682;30;20054;-78
2022/08/25 09:57:33;;;;;;;10.70;6.45;;;;;;;44.05;9.93;100767.06;4774701;30;20051;-78
2022/08/25 10:00:14;;;;;;;9.73;5.70;;;;;;;43.40;10.13;100755.84;4788540;29;20440;-79
2022/08/25 10:02:42;;;;;;;6.78;5.35;;;;;;;43.05;10.38;100749.41;4747075;30;20055;-79
2022/08/25 10:05:22;;;;;;;6.40;5.60;;;;;;;42.86;10.65;100755.66;4773043;29;20051;-79
2022/08/25 10:07:59;;;;;;;7.15;5.47;;;;;;;42.59;10.61;100758.28;4781195;30;20188;-79
2022/08/25 10:10:30;;;;;;;8.45;5.45;;;;;;;42.47;11.23;100759.88;4785538;29;20508;-77
2022/08/25 10:12:59;;;;;;;5.65;5.25;;;;;;;44.00;10.64;100736.72;4784229;29;20103;-77
2022/08/25 10:15:37;;;;;;;5.40;4.88;;;;;;;44.79;10.00;100757.81;4784680;29;20044;-81
2022/08/25 10:18:30;;;;;;;6.82;5.22;;;;;;;44.23;10.19;100749.97;4771906;30;20505;-80
2022/08/25 10:21:17;;;;;;;5.80;5.30;;;;;;;43.52;10.29;100731.44;4766232;29;20146;-80
2022/08/25 10:23:56;;;;;;;6.53;5.43;;;;;;;42.50;11.12;100740.34;4771001;30;20071;-80
2022/08/25 10:26:41;;;;;;;6.35;5.28;;;;;;;41.64;11.80;100748.53;4772019;30;20515;-76
2022/08/25 10:29:14;;;;;;;8.85;6.18;;;;;;;41.00;12.32;100758.31;4779474;29;20048;-80
2022/08/25 10:31:47;;;;;;;16.08;9.98;;;;;;;40.18;12.83;100755.47;4784183;29;20063;-79
2022/08/25 10:34:32;;;;;;;6.90;5.82;;;;;;;39.12;13.39;100752.53;4776994;29;21776;-80
2022/08/25 10:37:25;;;;;;;7.07;5.35;;;;;;;38.61;13.89;100751.03;4753263;30;20201;-79
2022/08/25 10:40:15;;;;;;;9.45;5.43;;;;;;;38.26;13.89;100732.25;4767797;30;20059;-77
2022/08/25 10:42:56;;;;;;;8.32;5.47;;;;;;;37.90;13.98;100745.34;4755886;30;20048;-79
2022/08/25 10:45:44;;;;;;;7.93;5.43;;;;;;;38.10;14.36;100746.69;4770595;30;20137;-78
2022/08/25 10:48:34;;;;;;;7.15;5.40;;;;;;;38.34;13.91;100736.81;4758047;30;20484;-77
2022/08/25 10:51:37;;;;;;;6.28;5.03;;;;;;;38.32;14.23;100727.16;4786053;29;20073;-77
2022/08/25 10:54:23;;;;;;;6.95;5.28;;;;;;;38.37;14.11;100725.63;4778244;29;20470;-77
2022/08/25 10:56:59;;;;;;;7.10;5.65;;;;;;;38.33;14.35;100729.69;4749488;30;20059;-78
2022/08/25 10:59:45;;;;;;;6.40;5.80;;;;;;;38.29;14.61;100725.59;4763359;30;20087;-79
2022/08/25 11:02:28;;;;;;;7.07;5.35;;;;;;;38.28;14.91;100719.34;4769207;30;20365;-77
2022/08/25 11:04:58;;;;;;;6.45;5.20;;;;;;;37.96;14.40;100722.97;4770034;29;20494;-78
2022/08/25 11:07:34;;;;;;;8.32;5.20;;;;;;;37.91;14.80;100712.63;4771501;30;20059;-78
2022/08/25 11:10:08;;;;;;;7.00;6.30;;;;;;;37.55;15.16;100710.22;4752394;30;20070;-77
2022/08/25 11:12:49;;;;;;;9.13;6.25;;;;;;;36.95;15.52;100717.56;4792677;29;20124;-78
2022/08/25 11:15:29;;;;;;;6.78;6.10;;;;;;;36.66;15.90;100699.81;4771338;30;20087;-77
2022/08/25 11:18:04;;;;;;;9.30;6.40;;;;;;;36.53;16.07;100704.84;4754613;30;20436;-77
2022/08/25 11:20:36;;;;;;;7.47;5.90;;;;;;;36.41;16.36;100698.81;4788755;29;20053;-78
2022/08/25 11:23:32;;;;;;;6.05;5.40;;;;;;;36.45;16.79;100703.78;4792537;29;20051;-79
2022/08/25 11:26:14;;;;;;;8.85;5.43;;;;;;;36.23;16.33;100705.16;4768850;29;20044;-76
2022/08/25 11:28:51;;;;;;;5.88;5.30;;;;;;;35.94;17.06;100694.63;4757871;30;20070;-77
2022/08/25 11:31:19;;;;;;;6.43;5.20;;;;;;;35.66;16.72;100702.88;4792717;29;20039;-78
2022/08/25 11:33:45;;;;;;;9.38;5.50;;;;;;;35.63;16.82;100697.75;4779725;29;20058;-76
2022/08/25 11:36:29;;;;;;;7.85;5.97;;;;;;;35.85;16.81;100696.44;4745906;30;20051;-77
2022/08/25 11:39:10;;;;;;;7.72;5.20;;;;;;;36.16;16.38;100690.56;4765888;29;20054;-77
2022/08/25 11:42:14;;;;;;;7.05;5.78;;;;;;;36.30;16.75;100689.94;4779776;29;20062;-78
2022/08/25 11:45:11;;;;;;;7.25;6.13;;;;;;;36.27;16.36;100690.31;4763973;30;20124;-77
2022/08/25 11:48:13;;;;;;;10.32;7.57;;;;;;;36.24;16.74;100679.78;4775275;30;20052;-79
2022/08/25 11:51:02;;;;;;;7.07;6.10;;;;;;;36.23;16.65;100671.81;4753007;30;20052;-78
2022/08/25 11:53:46;;;;;;;8.05;6.10;;;;;;;36.11;16.78;100666.69;4769275;29;20047;-78
2022/08/25 11:56:31;;;;;;;7.43;5.80;;;;;;;36.03;17.18;100672.91;4772460;30;20043;-79
2022/08/25 11:58:57;;;;;;;6.78;6.20;;;;;;;35.97;16.67;100664.56;4773667;29;20142;-77
2022/08/25 12:01:34;;;;;;;10.73;6.40;;;;;;;35.87;16.83;100661.91;4796773;29;20055;-78